sensor_id;sensor_type;location;lat;lon;timestamp;P1;durP1;ratioP1;P2;durP2;ratioP2
51224;SDS011;37298;42.688;23.312;2024-03-08T00:01:41;3.22;;;2.92;;
51224;SDS011;37298;42.688;23.312;2024-03-08T00:04:09;3.10;;;2.75;;
51224;SDS011;37298;42.688;23.312;2024-03-08T00:06:37;3.03;;;2.58;;
51224;SDS011;37298;42.688;23.312;2024-03-08T00:09:03;3.00;;;2.65;;
51224;SDS011;37298;42.688;23.312;2024-03-08T00:11:30;4.10;;;2.88;;
51224;SDS011;37298;42.688;23.312;2024-03-08T00:13:56;3.83;;;2.80;;
51224;SDS011;37298;42.688;23.312;2024-03-08T00:16:23;3.63;;;2.97;;
51224;SDS011;37298;42.688;23.312;2024-03-08T00:18:49;3.88;;;3.00;;
51224;SDS011;37298;42.688;23.312;2024-03-08T00:21:16;3.83;;;2.60;;
51224;SDS011;37298;42.688;23.312;2024-03-08T00:23:43;3.88;;;2.45;;
51224;SDS011;37298;42.688;23.312;2024-03-08T00:26:10;2.78;;;1.77;;
51224;SDS011;37298;42.688;23.312;2024-03-08T00:28:36;3.03;;;2.30;;
51224;SDS011;37298;42.688;23.312;2024-03-08T00:31:02;2.75;;;1.73;;
51224;SDS011;37298;42.688;23.312;2024-03-08T00:33:29;2.63;;;1.85;;
51224;SDS011;37298;42.688;23.312;2024-03-08T00:35:56;1.85;;;1.67;;
51224;SDS011;37298;42.688;23.312;2024-03-08T00:38:23;1.92;;;1.70;;
51224;SDS011;37298;42.688;23.312;2024-03-08T00:40:50;2.75;;;2.05;;
51224;SDS011;37298;42.688;23.312;2024-03-08T00:43:18;2.40;;;2.20;;
51224;SDS011;37298;42.688;23.312;2024-03-08T00:45:44;2.20;;;2.00;;
51224;SDS011;37298;42.688;23.312;2024-03-08T00:48:11;2.50;;;1.95;;
51224;SDS011;37298;42.688;23.312;2024-03-08T00:50:37;2.60;;;2.00;;
51224;SDS011;37298;42.688;23.312;2024-03-08T00:53:04;4.53;;;1.90;;
51224;SDS011;37298;42.688;23.312;2024-03-08T00:55:31;2.65;;;2.13;;
51224;SDS011;37298;42.688;23.312;2024-03-08T00:57:59;2.38;;;2.17;;
51224;SDS011;37298;42.688;23.312;2024-03-08T01:00:26;3.10;;;2.00;;
51224;SDS011;37298;42.688;23.312;2024-03-08T01:02:53;3.45;;;2.50;;
51224;SDS011;37298;42.688;23.312;2024-03-08T01:05:19;2.85;;;2.20;;
51224;SDS011;37298;42.688;23.312;2024-03-08T01:07:46;2.70;;;2.05;;
51224;SDS011;37298;42.688;23.312;2024-03-08T01:10:12;2.42;;;2.03;;
51224;SDS011;37298;42.688;23.312;2024-03-08T01:12:39;2.47;;;2.25;;
51224;SDS011;37298;42.688;23.312;2024-03-08T01:15:07;2.95;;;2.10;;
51224;SDS011;37298;42.688;23.312;2024-03-08T01:17:34;3.30;;;2.30;;
51224;SDS011;37298;42.688;23.312;2024-03-08T01:20:00;2.70;;;2.20;;
51224;SDS011;37298;42.688;23.312;2024-03-08T01:22:26;2.63;;;2.28;;
51224;SDS011;37298;42.688;23.312;2024-03-08T01:24:54;4.80;;;2.60;;
51224;SDS011;37298;42.688;23.312;2024-03-08T01:27:21;3.72;;;2.60;;
51224;SDS011;37298;42.688;23.312;2024-03-08T01:29:47;3.30;;;2.50;;
51224;SDS011;37298;42.688;23.312;2024-03-08T01:32:14;2.25;;;1.98;;
51224;SDS011;37298;42.688;23.312;2024-03-08T01:34:41;2.92;;;2.40;;
51224;SDS011;37298;42.688;23.312;2024-03-08T01:37:07;2.60;;;2.10;;
51224;SDS011;37298;42.688;23.312;2024-03-08T01:39:34;3.53;;;2.70;;
51224;SDS011;37298;42.688;23.312;2024-03-08T01:42:01;2.13;;;1.92;;
51224;SDS011;37298;42.688;23.312;2024-03-08T01:44:28;2.67;;;2.00;;
51224;SDS011;37298;42.688;23.312;2024-03-08T01:46:54;3.97;;;2.42;;
51224;SDS011;37298;42.688;23.312;2024-03-08T01:49:22;2.40;;;2.00;;
51224;SDS011;37298;42.688;23.312;2024-03-08T01:51:51;2.80;;;2.13;;
51224;SDS011;37298;42.688;23.312;2024-03-08T01:54:18;3.42;;;2.70;;
51224;SDS011;37298;42.688;23.312;2024-03-08T01:56:45;3.08;;;2.30;;
51224;SDS011;37298;42.688;23.312;2024-03-08T01:59:12;3.13;;;2.00;;
51224;SDS011;37298;42.688;23.312;2024-03-08T02:01:40;3.88;;;2.38;;
51224;SDS011;37298;42.688;23.312;2024-03-08T02:04:07;2.63;;;2.20;;
51224;SDS011;37298;42.688;23.312;2024-03-08T02:06:34;3.63;;;2.38;;
51224;SDS011;37298;42.688;23.312;2024-03-08T02:09:01;2.45;;;2.20;;
51224;SDS011;37298;42.688;23.312;2024-03-08T02:11:31;2.30;;;2.10;;
51224;SDS011;37298;42.688;23.312;2024-03-08T02:13:58;3.25;;;2.50;;
51224;SDS011;37298;42.688;23.312;2024-03-08T02:16:24;3.60;;;2.70;;
51224;SDS011;37298;42.688;23.312;2024-03-08T02:18:51;3.58;;;2.70;;
51224;SDS011;37298;42.688;23.312;2024-03-08T02:21:18;3.00;;;2.70;;
51224;SDS011;37298;42.688;23.312;2024-03-08T02:23:44;7.55;;;2.28;;
51224;SDS011;37298;42.688;23.312;2024-03-08T02:26:11;2.30;;;2.10;;
51224;SDS011;37298;42.688;23.312;2024-03-08T02:28:38;3.25;;;2.35;;
51224;SDS011;37298;42.688;23.312;2024-03-08T02:31:05;2.90;;;2.20;;
51224;SDS011;37298;42.688;23.312;2024-03-08T02:33:33;2.40;;;2.13;;
51224;SDS011;37298;42.688;23.312;2024-03-08T02:36:00;2.35;;;2.15;;
51224;SDS011;37298;42.688;23.312;2024-03-08T02:38:27;1.83;;;1.60;;
51224;SDS011;37298;42.688;23.312;2024-03-08T02:40:54;2.83;;;2.03;;
51224;SDS011;37298;42.688;23.312;2024-03-08T02:43:21;2.42;;;2.13;;
51224;SDS011;37298;42.688;23.312;2024-03-08T02:45:48;2.47;;;2.28;;
51224;SDS011;37298;42.688;23.312;2024-03-08T02:48:15;2.63;;;2.38;;
51224;SDS011;37298;42.688;23.312;2024-03-08T02:50:42;2.53;;;2.13;;
51224;SDS011;37298;42.688;23.312;2024-03-08T02:53:10;3.38;;;2.58;;
51224;SDS011;37298;42.688;23.312;2024-03-08T02:55:37;3.47;;;2.40;;
51224;SDS011;37298;42.688;23.312;2024-03-08T02:58:03;3.30;;;2.83;;
51224;SDS011;37298;42.688;23.312;2024-03-08T03:00:30;2.72;;;2.40;;
51224;SDS011;37298;42.688;23.312;2024-03-08T03:02:58;3.17;;;2.63;;
51224;SDS011;37298;42.688;23.312;2024-03-08T03:05:24;3.70;;;3.00;;
51224;SDS011;37298;42.688;23.312;2024-03-08T03:07:51;3.50;;;2.72;;
51224;SDS011;37298;42.688;23.312;2024-03-08T03:10:18;2.60;;;2.33;;
51224;SDS011;37298;42.688;23.312;2024-03-08T03:12:45;2.13;;;1.92;;
51224;SDS011;37298;42.688;23.312;2024-03-08T03:15:13;1.67;;;1.58;;
51224;SDS011;37298;42.688;23.312;2024-03-08T03:17:39;3.85;;;1.80;;
51224;SDS011;37298;42.688;23.312;2024-03-08T03:20:06;1.95;;;1.77;;
51224;SDS011;37298;42.688;23.312;2024-03-08T03:22:36;2.60;;;1.83;;
51224;SDS011;37298;42.688;23.312;2024-03-08T03:25:03;1.83;;;1.50;;
51224;SDS011;37298;42.688;23.312;2024-03-08T03:27:30;1.30;;;1.20;;
51224;SDS011;37298;42.688;23.312;2024-03-08T03:29:57;1.88;;;1.40;;
51224;SDS011;37298;42.688;23.312;2024-03-08T03:32:23;1.88;;;1.50;;
51224;SDS011;37298;42.688;23.312;2024-03-08T03:34:50;1.40;;;1.30;;
51224;SDS011;37298;42.688;23.312;2024-03-08T03:37:18;2.05;;;1.65;;
51224;SDS011;37298;42.688;23.312;2024-03-08T03:39:45;1.98;;;1.88;;
51224;SDS011;37298;42.688;23.312;2024-03-08T03:42:14;2.35;;;1.50;;
51224;SDS011;37298;42.688;23.312;2024-03-08T03:44:41;1.65;;;1.20;;
51224;SDS011;37298;42.688;23.312;2024-03-08T03:47:10;1.70;;;1.60;;
51224;SDS011;37298;42.688;23.312;2024-03-08T03:49:36;1.52;;;1.40;;
51224;SDS011;37298;42.688;23.312;2024-03-08T03:52:02;1.67;;;1.50;;
51224;SDS011;37298;42.688;23.312;2024-03-08T03:54:30;1.75;;;1.65;;
51224;SDS011;37298;42.688;23.312;2024-03-08T03:56:56;1.95;;;1.77;;
51224;SDS011;37298;42.688;23.312;2024-03-08T03:59:23;2.55;;;2.10;;
51224;SDS011;37298;42.688;23.312;2024-03-08T04:01:50;2.50;;;1.60;;
51224;SDS011;37298;42.688;23.312;2024-03-08T04:04:17;2.67;;;2.20;;
51224;SDS011;37298;42.688;23.312;2024-03-08T04:06:43;2.25;;;1.73;;
51224;SDS011;37298;42.688;23.312;2024-03-08T04:09:10;2.40;;;1.85;;
51224;SDS011;37298;42.688;23.312;2024-03-08T04:11:36;2.33;;;1.98;;
51224;SDS011;37298;42.688;23.312;2024-03-08T04:14:03;3.38;;;1.88;;
51224;SDS011;37298;42.688;23.312;2024-03-08T04:16:30;2.17;;;1.70;;
51224;SDS011;37298;42.688;23.312;2024-03-08T04:18:57;2.15;;;1.95;;
51224;SDS011;37298;42.688;23.312;2024-03-08T04:21:24;3.78;;;1.95;;
51224;SDS011;37298;42.688;23.312;2024-03-08T04:23:50;6.38;;;2.30;;
51224;SDS011;37298;42.688;23.312;2024-03-08T04:26:17;2.60;;;2.08;;
51224;SDS011;37298;42.688;23.312;2024-03-08T04:28:43;3.17;;;2.42;;
51224;SDS011;37298;42.688;23.312;2024-03-08T04:31:10;2.97;;;2.42;;
51224;SDS011;37298;42.688;23.312;2024-03-08T04:33:36;2.72;;;2.33;;
51224;SDS011;37298;42.688;23.312;2024-03-08T04:36:03;4.00;;;2.50;;
51224;SDS011;37298;42.688;23.312;2024-03-08T04:38:30;4.13;;;2.80;;
51224;SDS011;37298;42.688;23.312;2024-03-08T04:40:57;4.00;;;3.03;;
51224;SDS011;37298;42.688;23.312;2024-03-08T04:43:23;3.45;;;2.90;;
51224;SDS011;37298;42.688;23.312;2024-03-08T04:45:52;5.43;;;2.78;;
51224;SDS011;37298;42.688;23.312;2024-03-08T04:48:19;4.85;;;2.80;;
51224;SDS011;37298;42.688;23.312;2024-03-08T04:50:46;3.42;;;3.03;;
51224;SDS011;37298;42.688;23.312;2024-03-08T04:53:12;4.10;;;3.20;;
51224;SDS011;37298;42.688;23.312;2024-03-08T04:55:39;3.28;;;2.80;;
51224;SDS011;37298;42.688;23.312;2024-03-08T04:58:06;3.72;;;2.72;;
51224;SDS011;37298;42.688;23.312;2024-03-08T05:00:33;3.60;;;2.78;;
51224;SDS011;37298;42.688;23.312;2024-03-08T05:02:59;4.28;;;3.17;;
51224;SDS011;37298;42.688;23.312;2024-03-08T05:05:26;3.78;;;3.10;;
51224;SDS011;37298;42.688;23.312;2024-03-08T05:07:54;5.65;;;3.28;;
51224;SDS011;37298;42.688;23.312;2024-03-08T05:10:21;4.38;;;3.53;;
51224;SDS011;37298;42.688;23.312;2024-03-08T05:12:48;4.10;;;2.92;;
51224;SDS011;37298;42.688;23.312;2024-03-08T05:15:14;6.00;;;3.10;;
51224;SDS011;37298;42.688;23.312;2024-03-08T05:17:41;4.40;;;3.33;;
51224;SDS011;37298;42.688;23.312;2024-03-08T05:20:07;4.45;;;3.28;;
51224;SDS011;37298;42.688;23.312;2024-03-08T05:22:37;6.72;;;3.58;;
51224;SDS011;37298;42.688;23.312;2024-03-08T05:25:04;5.05;;;3.92;;
51224;SDS011;37298;42.688;23.312;2024-03-08T05:27:32;7.35;;;4.40;;
51224;SDS011;37298;42.688;23.312;2024-03-08T05:29:59;4.72;;;3.47;;
51224;SDS011;37298;42.688;23.312;2024-03-08T05:32:26;6.50;;;4.50;;
51224;SDS011;37298;42.688;23.312;2024-03-08T05:34:52;6.57;;;4.43;;
51224;SDS011;37298;42.688;23.312;2024-03-08T05:37:19;9.70;;;4.55;;
51224;SDS011;37298;42.688;23.312;2024-03-08T05:39:46;6.85;;;4.72;;
51224;SDS011;37298;42.688;23.312;2024-03-08T05:42:12;8.38;;;5.40;;
51224;SDS011;37298;42.688;23.312;2024-03-08T05:44:38;7.05;;;4.65;;
51224;SDS011;37298;42.688;23.312;2024-03-08T05:47:06;6.38;;;4.72;;
51224;SDS011;37298;42.688;23.312;2024-03-08T05:49:33;11.35;;;5.38;;
51224;SDS011;37298;42.688;23.312;2024-03-08T05:51:59;7.00;;;4.93;;
51224;SDS011;37298;42.688;23.312;2024-03-08T05:54:26;7.70;;;4.15;;
51224;SDS011;37298;42.688;23.312;2024-03-08T05:56:52;7.85;;;5.03;;
51224;SDS011;37298;42.688;23.312;2024-03-08T05:59:19;6.88;;;5.07;;
51224;SDS011;37298;42.688;23.312;2024-03-08T06:01:48;8.07;;;5.45;;
51224;SDS011;37298;42.688;23.312;2024-03-08T06:04:15;7.60;;;4.88;;
51224;SDS011;37298;42.688;23.312;2024-03-08T06:06:43;9.10;;;5.40;;
51224;SDS011;37298;42.688;23.312;2024-03-08T06:09:10;7.28;;;4.50;;
51224;SDS011;37298;42.688;23.312;2024-03-08T06:11:39;6.82;;;4.78;;
51224;SDS011;37298;42.688;23.312;2024-03-08T06:14:06;7.82;;;5.70;;
51224;SDS011;37298;42.688;23.312;2024-03-08T06:16:33;7.05;;;5.10;;
51224;SDS011;37298;42.688;23.312;2024-03-08T06:18:59;6.97;;;5.30;;
51224;SDS011;37298;42.688;23.312;2024-03-08T06:21:28;6.95;;;4.95;;
51224;SDS011;37298;42.688;23.312;2024-03-08T06:23:55;5.47;;;4.53;;
51224;SDS011;37298;42.688;23.312;2024-03-08T06:26:23;7.28;;;5.45;;
51224;SDS011;37298;42.688;23.312;2024-03-08T06:28:50;8.23;;;5.10;;
51224;SDS011;37298;42.688;23.312;2024-03-08T06:31:17;8.05;;;5.03;;
51224;SDS011;37298;42.688;23.312;2024-03-08T06:33:43;6.70;;;4.57;;
51224;SDS011;37298;42.688;23.312;2024-03-08T06:36:10;8.00;;;4.97;;
51224;SDS011;37298;42.688;23.312;2024-03-08T06:38:38;7.32;;;5.13;;
51224;SDS011;37298;42.688;23.312;2024-03-08T06:41:08;5.90;;;4.28;;
51224;SDS011;37298;42.688;23.312;2024-03-08T06:43:34;5.82;;;4.20;;
51224;SDS011;37298;42.688;23.312;2024-03-08T06:46:01;7.90;;;4.80;;
51224;SDS011;37298;42.688;23.312;2024-03-08T06:48:29;7.10;;;5.15;;
51224;SDS011;37298;42.688;23.312;2024-03-08T06:50:56;7.05;;;4.97;;
51224;SDS011;37298;42.688;23.312;2024-03-08T06:53:23;8.50;;;4.65;;
51224;SDS011;37298;42.688;23.312;2024-03-08T06:55:51;7.35;;;4.85;;
51224;SDS011;37298;42.688;23.312;2024-03-08T06:58:18;7.43;;;4.45;;
51224;SDS011;37298;42.688;23.312;2024-03-08T07:00:44;6.32;;;4.32;;
51224;SDS011;37298;42.688;23.312;2024-03-08T07:03:11;9.35;;;5.25;;
51224;SDS011;37298;42.688;23.312;2024-03-08T07:05:43;7.82;;;5.05;;
51224;SDS011;37298;42.688;23.312;2024-03-08T07:08:10;7.68;;;4.88;;
51224;SDS011;37298;42.688;23.312;2024-03-08T07:10:38;7.55;;;5.15;;
51224;SDS011;37298;42.688;23.312;2024-03-08T07:13:08;7.93;;;4.78;;
51224;SDS011;37298;42.688;23.312;2024-03-08T07:15:35;8.05;;;5.10;;
51224;SDS011;37298;42.688;23.312;2024-03-08T07:18:02;6.68;;;4.63;;
51224;SDS011;37298;42.688;23.312;2024-03-08T07:20:28;8.32;;;5.13;;
51224;SDS011;37298;42.688;23.312;2024-03-08T07:22:55;9.68;;;5.20;;
51224;SDS011;37298;42.688;23.312;2024-03-08T07:25:21;7.53;;;5.30;;
51224;SDS011;37298;42.688;23.312;2024-03-08T07:27:50;8.18;;;5.40;;
51224;SDS011;37298;42.688;23.312;2024-03-08T07:30:18;7.37;;;4.97;;
51224;SDS011;37298;42.688;23.312;2024-03-08T07:32:59;8.77;;;5.55;;
51224;SDS011;37298;42.688;23.312;2024-03-08T07:35:27;10.55;;;5.47;;
51224;SDS011;37298;42.688;23.312;2024-03-08T07:37:54;6.72;;;5.15;;
51224;SDS011;37298;42.688;23.312;2024-03-08T07:40:21;7.97;;;5.50;;
51224;SDS011;37298;42.688;23.312;2024-03-08T07:42:48;8.32;;;5.75;;
51224;SDS011;37298;42.688;23.312;2024-03-08T07:45:15;8.02;;;5.57;;
51224;SDS011;37298;42.688;23.312;2024-03-08T07:47:43;8.63;;;5.90;;
51224;SDS011;37298;42.688;23.312;2024-03-08T07:50:09;9.25;;;6.20;;
51224;SDS011;37298;42.688;23.312;2024-03-08T07:52:36;9.60;;;6.05;;
51224;SDS011;37298;42.688;23.312;2024-03-08T07:55:02;10.88;;;6.40;;
51224;SDS011;37298;42.688;23.312;2024-03-08T07:57:29;9.52;;;6.32;;
51224;SDS011;37298;42.688;23.312;2024-03-08T07:59:56;9.50;;;6.05;;
51224;SDS011;37298;42.688;23.312;2024-03-08T08:02:22;10.05;;;6.70;;
51224;SDS011;37298;42.688;23.312;2024-03-08T08:04:49;13.30;;;8.00;;
51224;SDS011;37298;42.688;23.312;2024-03-08T08:07:16;8.10;;;5.85;;
51224;SDS011;37298;42.688;23.312;2024-03-08T08:09:42;14.13;;;6.47;;
51224;SDS011;37298;42.688;23.312;2024-03-08T08:12:09;9.10;;;6.30;;
51224;SDS011;37298;42.688;23.312;2024-03-08T08:14:37;10.20;;;6.90;;
51224;SDS011;37298;42.688;23.312;2024-03-08T08:17:04;7.95;;;6.03;;
51224;SDS011;37298;42.688;23.312;2024-03-08T08:19:34;18.65;;;6.72;;
51224;SDS011;37298;42.688;23.312;2024-03-08T08:22:02;8.35;;;5.97;;
51224;SDS011;37298;42.688;23.312;2024-03-08T08:24:28;10.18;;;6.72;;
51224;SDS011;37298;42.688;23.312;2024-03-08T08:26:55;7.68;;;5.43;;
51224;SDS011;37298;42.688;23.312;2024-03-08T08:29:22;8.20;;;4.13;;
51224;SDS011;37298;42.688;23.312;2024-03-08T08:31:49;7.90;;;5.05;;
51224;SDS011;37298;42.688;23.312;2024-03-08T08:34:15;10.07;;;5.57;;
51224;SDS011;37298;42.688;23.312;2024-03-08T08:39:11;5.82;;;4.28;;
51224;SDS011;37298;42.688;23.312;2024-03-08T08:41:39;5.03;;;4.15;;
51224;SDS011;37298;42.688;23.312;2024-03-08T08:44:07;5.82;;;4.35;;
51224;SDS011;37298;42.688;23.312;2024-03-08T08:46:36;5.40;;;3.60;;
51224;SDS011;37298;42.688;23.312;2024-03-08T08:49:03;9.65;;;3.72;;
51224;SDS011;37298;42.688;23.312;2024-03-08T08:51:30;5.30;;;3.90;;
51224;SDS011;37298;42.688;23.312;2024-03-08T08:53:59;8.38;;;3.85;;
51224;SDS011;37298;42.688;23.312;2024-03-08T08:56:27;5.72;;;3.88;;
51224;SDS011;37298;42.688;23.312;2024-03-08T08:58:54;4.80;;;3.55;;
51224;SDS011;37298;42.688;23.312;2024-03-08T09:01:21;5.10;;;3.50;;
51224;SDS011;37298;42.688;23.312;2024-03-08T09:03:48;6.63;;;3.75;;
51224;SDS011;37298;42.688;23.312;2024-03-08T09:06:15;8.25;;;3.80;;
51224;SDS011;37298;42.688;23.312;2024-03-08T09:08:42;5.35;;;3.42;;
51224;SDS011;37298;42.688;23.312;2024-03-08T09:11:09;8.73;;;4.28;;
51224;SDS011;37298;42.688;23.312;2024-03-08T09:13:38;5.15;;;4.05;;
51224;SDS011;37298;42.688;23.312;2024-03-08T09:16:05;4.43;;;3.08;;
51224;SDS011;37298;42.688;23.312;2024-03-08T09:18:32;5.32;;;3.40;;
51224;SDS011;37298;42.688;23.312;2024-03-08T09:20:59;6.13;;;4.20;;
51224;SDS011;37298;42.688;23.312;2024-03-08T09:23:26;4.78;;;3.58;;
51224;SDS011;37298;42.688;23.312;2024-03-08T09:25:55;5.28;;;3.50;;
51224;SDS011;37298;42.688;23.312;2024-03-08T09:28:24;3.10;;;2.80;;
51224;SDS011;37298;42.688;23.312;2024-03-08T09:30:53;3.78;;;2.88;;
51224;SDS011;37298;42.688;23.312;2024-03-08T09:33:23;8.05;;;2.90;;
51224;SDS011;37298;42.688;23.312;2024-03-08T09:35:51;6.33;;;4.10;;
51224;SDS011;37298;42.688;23.312;2024-03-08T09:38:19;10.77;;;5.53;;
51224;SDS011;37298;42.688;23.312;2024-03-08T09:40:46;6.10;;;4.03;;
51224;SDS011;37298;42.688;23.312;2024-03-08T09:43:13;5.68;;;4.20;;
51224;SDS011;37298;42.688;23.312;2024-03-08T09:45:40;6.88;;;4.60;;
51224;SDS011;37298;42.688;23.312;2024-03-08T09:48:13;5.68;;;3.90;;
51224;SDS011;37298;42.688;23.312;2024-03-08T09:50:40;8.32;;;4.20;;
51224;SDS011;37298;42.688;23.312;2024-03-08T09:53:07;5.93;;;3.90;;
51224;SDS011;37298;42.688;23.312;2024-03-08T09:55:35;6.00;;;3.17;;
51224;SDS011;37298;42.688;23.312;2024-03-08T09:58:05;4.30;;;2.90;;
51224;SDS011;37298;42.688;23.312;2024-03-08T10:01:02;2.78;;;2.40;;
51224;SDS011;37298;42.688;23.312;2024-03-08T10:03:33;5.80;;;3.55;;
51224;SDS011;37298;42.688;23.312;2024-03-08T10:06:01;5.07;;;3.13;;
51224;SDS011;37298;42.688;23.312;2024-03-08T10:08:29;4.50;;;3.13;;
51224;SDS011;37298;42.688;23.312;2024-03-08T10:10:56;7.13;;;3.60;;
51224;SDS011;37298;42.688;23.312;2024-03-08T10:13:24;6.47;;;3.97;;
51224;SDS011;37298;42.688;23.312;2024-03-08T10:15:52;5.45;;;3.80;;
51224;SDS011;37298;42.688;23.312;2024-03-08T10:18:20;5.07;;;3.63;;
51224;SDS011;37298;42.688;23.312;2024-03-08T10:23:32;2.80;;;2.35;;
51224;SDS011;37298;42.688;23.312;2024-03-08T10:26:09;4.53;;;3.08;;
51224;SDS011;37298;42.688;23.312;2024-03-08T10:28:40;3.75;;;2.65;;
51224;SDS011;37298;42.688;23.312;2024-03-08T10:33:35;3.35;;;2.28;;
51224;SDS011;37298;42.688;23.312;2024-03-08T10:36:04;6.22;;;2.03;;
51224;SDS011;37298;42.688;23.312;2024-03-08T10:38:33;4.78;;;2.45;;
51224;SDS011;37298;42.688;23.312;2024-03-08T10:41:01;5.95;;;2.45;;
51224;SDS011;37298;42.688;23.312;2024-03-08T10:43:31;3.92;;;2.20;;
51224;SDS011;37298;42.688;23.312;2024-03-08T10:46:06;5.00;;;2.45;;
51224;SDS011;37298;42.688;23.312;2024-03-08T10:48:36;4.63;;;2.33;;
51224;SDS011;37298;42.688;23.312;2024-03-08T10:51:07;3.75;;;2.50;;
51224;SDS011;37298;42.688;23.312;2024-03-08T10:53:37;3.80;;;2.55;;
51224;SDS011;37298;42.688;23.312;2024-03-08T10:56:07;3.67;;;2.60;;
51224;SDS011;37298;42.688;23.312;2024-03-08T10:58:35;4.55;;;2.67;;
51224;SDS011;37298;42.688;23.312;2024-03-08T11:01:02;4.63;;;2.85;;
51224;SDS011;37298;42.688;23.312;2024-03-08T11:06:22;6.65;;;3.40;;
51224;SDS011;37298;42.688;23.312;2024-03-08T11:08:49;3.78;;;2.72;;
51224;SDS011;37298;42.688;23.312;2024-03-08T11:11:26;4.47;;;3.57;;
51224;SDS011;37298;42.688;23.312;2024-03-08T11:14:00;4.35;;;3.08;;
51224;SDS011;37298;42.688;23.312;2024-03-08T11:16:43;4.63;;;3.05;;
51224;SDS011;37298;42.688;23.312;2024-03-08T11:21:58;3.35;;;2.38;;
51224;SDS011;37298;42.688;23.312;2024-03-08T11:24:26;4.55;;;2.88;;
51224;SDS011;37298;42.688;23.312;2024-03-08T11:26:54;3.80;;;2.47;;
51224;SDS011;37298;42.688;23.312;2024-03-08T11:29:32;8.75;;;3.42;;
51224;SDS011;37298;42.688;23.312;2024-03-08T11:32:04;2.83;;;2.20;;
51224;SDS011;37298;42.688;23.312;2024-03-08T11:34:31;3.53;;;2.63;;
51224;SDS011;37298;42.688;23.312;2024-03-08T11:36:58;3.80;;;2.72;;
51224;SDS011;37298;42.688;23.312;2024-03-08T11:39:26;3.58;;;2.45;;
51224;SDS011;37298;42.688;23.312;2024-03-08T11:41:54;3.33;;;2.85;;
51224;SDS011;37298;42.688;23.312;2024-03-08T11:44:21;5.60;;;2.53;;
51224;SDS011;37298;42.688;23.312;2024-03-08T11:46:47;3.50;;;2.20;;
51224;SDS011;37298;42.688;23.312;2024-03-08T11:49:14;3.78;;;1.70;;
51224;SDS011;37298;42.688;23.312;2024-03-08T11:51:41;4.13;;;3.50;;
51224;SDS011;37298;42.688;23.312;2024-03-08T11:54:10;4.03;;;2.10;;
51224;SDS011;37298;42.688;23.312;2024-03-08T11:56:38;4.40;;;1.90;;
51224;SDS011;37298;42.688;23.312;2024-03-08T11:59:10;2.72;;;1.70;;
51224;SDS011;37298;42.688;23.312;2024-03-08T12:01:38;3.13;;;1.60;;
51224;SDS011;37298;42.688;23.312;2024-03-08T12:04:04;2.08;;;1.77;;
51224;SDS011;37298;42.688;23.312;2024-03-08T12:06:36;2.17;;;1.77;;
51224;SDS011;37298;42.688;23.312;2024-03-08T12:09:05;2.47;;;1.83;;
51224;SDS011;37298;42.688;23.312;2024-03-08T12:11:35;1.85;;;1.67;;
51224;SDS011;37298;42.688;23.312;2024-03-08T12:14:02;2.15;;;1.50;;
51224;SDS011;37298;42.688;23.312;2024-03-08T12:16:29;2.28;;;1.67;;
51224;SDS011;37298;42.688;23.312;2024-03-08T12:18:56;2.28;;;1.80;;
51224;SDS011;37298;42.688;23.312;2024-03-08T12:21:25;3.00;;;1.80;;
51224;SDS011;37298;42.688;23.312;2024-03-08T12:24:01;3.63;;;1.75;;
51224;SDS011;37298;42.688;23.312;2024-03-08T12:26:29;3.05;;;1.80;;
51224;SDS011;37298;42.688;23.312;2024-03-08T12:31:39;2.33;;;1.95;;
51224;SDS011;37298;42.688;23.312;2024-03-08T12:34:08;2.28;;;1.80;;
51224;SDS011;37298;42.688;23.312;2024-03-08T12:36:35;3.00;;;1.97;;
51224;SDS011;37298;42.688;23.312;2024-03-08T12:39:02;3.90;;;2.40;;
51224;SDS011;37298;42.688;23.312;2024-03-08T12:41:29;3.08;;;2.20;;
51224;SDS011;37298;42.688;23.312;2024-03-08T12:43:56;2.70;;;2.08;;
51224;SDS011;37298;42.688;23.312;2024-03-08T12:46:22;3.75;;;2.42;;
51224;SDS011;37298;42.688;23.312;2024-03-08T12:48:52;4.45;;;2.95;;
51224;SDS011;37298;42.688;23.312;2024-03-08T12:51:19;3.72;;;2.22;;
51224;SDS011;37298;42.688;23.312;2024-03-08T12:53:46;2.87;;;2.20;;
51224;SDS011;37298;42.688;23.312;2024-03-08T12:56:31;2.88;;;1.83;;
51224;SDS011;37298;42.688;23.312;2024-03-08T12:59:00;4.70;;;2.10;;
51224;SDS011;37298;42.688;23.312;2024-03-08T13:01:27;3.55;;;2.00;;
51224;SDS011;37298;42.688;23.312;2024-03-08T13:03:54;2.83;;;1.92;;
51224;SDS011;37298;42.688;23.312;2024-03-08T13:06:21;4.68;;;1.75;;
51224;SDS011;37298;42.688;23.312;2024-03-08T13:08:50;2.55;;;2.00;;
51224;SDS011;37298;42.688;23.312;2024-03-08T13:11:17;1.90;;;1.80;;
51224;SDS011;37298;42.688;23.312;2024-03-08T13:13:44;2.05;;;1.65;;
51224;SDS011;37298;42.688;23.312;2024-03-08T13:16:12;5.15;;;3.58;;
51224;SDS011;37298;42.688;23.312;2024-03-08T13:21:08;4.45;;;2.72;;
51224;SDS011;37298;42.688;23.312;2024-03-08T13:23:36;2.70;;;2.20;;
51224;SDS011;37298;42.688;23.312;2024-03-08T13:26:05;2.35;;;1.77;;
51224;SDS011;37298;42.688;23.312;2024-03-08T13:28:31;10.57;;;6.10;;
51224;SDS011;37298;42.688;23.312;2024-03-08T13:31:02;4.35;;;2.53;;
51224;SDS011;37298;42.688;23.312;2024-03-08T13:33:29;4.85;;;2.80;;
51224;SDS011;37298;42.688;23.312;2024-03-08T13:35:55;2.03;;;1.70;;
51224;SDS011;37298;42.688;23.312;2024-03-08T13:38:23;6.97;;;2.05;;
51224;SDS011;37298;42.688;23.312;2024-03-08T13:40:49;2.47;;;2.03;;
51224;SDS011;37298;42.688;23.312;2024-03-08T13:43:17;2.47;;;1.92;;
51224;SDS011;37298;42.688;23.312;2024-03-08T13:45:43;2.80;;;1.92;;
51224;SDS011;37298;42.688;23.312;2024-03-08T13:48:10;2.47;;;1.80;;
51224;SDS011;37298;42.688;23.312;2024-03-08T13:50:38;6.50;;;2.35;;
51224;SDS011;37298;42.688;23.312;2024-03-08T13:53:05;3.75;;;2.25;;
51224;SDS011;37298;42.688;23.312;2024-03-08T13:55:33;2.90;;;2.10;;
51224;SDS011;37298;42.688;23.312;2024-03-08T13:58:00;4.88;;;2.15;;
51224;SDS011;37298;42.688;23.312;2024-03-08T14:00:28;2.15;;;1.95;;
51224;SDS011;37298;42.688;23.312;2024-03-08T14:02:58;2.75;;;2.17;;
51224;SDS011;37298;42.688;23.312;2024-03-08T14:05:25;4.40;;;2.83;;
51224;SDS011;37298;42.688;23.312;2024-03-08T14:07:52;3.67;;;2.35;;
51224;SDS011;37298;42.688;23.312;2024-03-08T14:10:19;3.58;;;2.60;;
51224;SDS011;37298;42.688;23.312;2024-03-08T14:12:49;3.35;;;2.10;;
51224;SDS011;37298;42.688;23.312;2024-03-08T14:15:16;2.87;;;2.57;;
51224;SDS011;37298;42.688;23.312;2024-03-08T14:17:42;2.50;;;1.98;;
51224;SDS011;37298;42.688;23.312;2024-03-08T14:20:09;3.28;;;2.35;;
51224;SDS011;37298;42.688;23.312;2024-03-08T14:22:38;4.65;;;2.85;;
51224;SDS011;37298;42.688;23.312;2024-03-08T14:25:05;4.90;;;3.03;;
51224;SDS011;37298;42.688;23.312;2024-03-08T14:27:32;3.85;;;2.78;;
51224;SDS011;37298;42.688;23.312;2024-03-08T14:30:00;4.18;;;2.60;;
51224;SDS011;37298;42.688;23.312;2024-03-08T14:32:26;4.25;;;3.05;;
51224;SDS011;37298;42.688;23.312;2024-03-08T14:34:54;6.35;;;2.78;;
51224;SDS011;37298;42.688;23.312;2024-03-08T14:37:21;4.55;;;2.85;;
51224;SDS011;37298;42.688;23.312;2024-03-08T14:39:53;4.15;;;2.60;;
51224;SDS011;37298;42.688;23.312;2024-03-08T14:42:20;6.38;;;2.90;;
51224;SDS011;37298;42.688;23.312;2024-03-08T14:44:47;2.80;;;2.55;;
51224;SDS011;37298;42.688;23.312;2024-03-08T14:47:17;3.60;;;2.88;;
51224;SDS011;37298;42.688;23.312;2024-03-08T14:49:43;4.45;;;2.80;;
51224;SDS011;37298;42.688;23.312;2024-03-08T14:52:10;7.53;;;3.33;;
51224;SDS011;37298;42.688;23.312;2024-03-08T14:54:52;3.85;;;2.80;;